sensor_id;sensor_type;location;lat;lon;timestamp;P1;durP1;ratioP1;P2;durP2;ratioP2
23614;SDS011;11985;49.404;7.734;2022-10-17T00:01:09;7.43;;;3.60;;
23614;SDS011;11985;49.404;7.734;2022-10-17T00:03:11;7.85;;;3.63;;
23614;SDS011;11985;49.404;7.734;2022-10-17T00:07:15;8.00;;;3.67;;
23614;SDS011;11985;49.404;7.734;2022-10-17T00:11:18;10.93;;;3.60;;
23614;SDS011;11985;49.404;7.734;2022-10-17T00:13:21;8.00;;;3.97;;
23614;SDS011;11985;49.404;7.734;2022-10-17T00:17:26;6.90;;;3.53;;
23614;SDS011;11985;49.404;7.734;2022-10-17T00:19:28;15.40;;;3.70;;
23614;SDS011;11985;49.404;7.734;2022-10-17T00:21:30;14.90;;;3.70;;
23614;SDS011;11985;49.404;7.734;2022-10-17T00:23:32;9.52;;;4.18;;
23614;SDS011;11985;49.404;7.734;2022-10-17T00:27:36;24.40;;;5.72;;
23614;SDS011;11985;49.404;7.734;2022-10-17T00:29:38;17.23;;;4.20;;
23614;SDS011;11985;49.404;7.734;2022-10-17T00:31:40;16.77;;;4.15;;
23614;SDS011;11985;49.404;7.734;2022-10-17T00:33:43;11.77;;;4.35;;
23614;SDS011;11985;49.404;7.734;2022-10-17T00:35:45;17.42;;;4.20;;
23614;SDS011;11985;49.404;7.734;2022-10-17T00:37:47;10.38;;;3.88;;
23614;SDS011;11985;49.404;7.734;2022-10-17T00:39:48;11.50;;;3.72;;
23614;SDS011;11985;49.404;7.734;2022-10-17T00:41:50;23.08;;;4.20;;
23614;SDS011;11985;49.404;7.734;2022-10-17T00:45:56;23.92;;;4.22;;
23614;SDS011;11985;49.404;7.734;2022-10-17T00:47:58;10.43;;;3.30;;
23614;SDS011;11985;49.404;7.734;2022-10-17T00:50:05;9.77;;;3.25;;
23614;SDS011;11985;49.404;7.734;2022-10-17T00:52:09;8.43;;;3.28;;
23614;SDS011;11985;49.404;7.734;2022-10-17T00:54:16;10.95;;;3.63;;
23614;SDS011;11985;49.404;7.734;2022-10-17T00:56:21;4.25;;;3.03;;
23614;SDS011;11985;49.404;7.734;2022-10-17T00:58:23;11.48;;;3.22;;
23614;SDS011;11985;49.404;7.734;2022-10-17T01:00:25;15.77;;;4.18;;
23614;SDS011;11985;49.404;7.734;2022-10-17T01:02:27;12.52;;;3.50;;
23614;SDS011;11985;49.404;7.734;2022-10-17T01:04:29;15.48;;;3.97;;
23614;SDS011;11985;49.404;7.734;2022-10-17T01:06:32;8.35;;;3.85;;
23614;SDS011;11985;49.404;7.734;2022-10-17T01:08:34;8.52;;;3.33;;
23614;SDS011;11985;49.404;7.734;2022-10-17T01:10:38;13.07;;;3.40;;
23614;SDS011;11985;49.404;7.734;2022-10-17T01:12:51;15.57;;;3.50;;
23614;SDS011;11985;49.404;7.734;2022-10-17T01:17:08;11.60;;;4.00;;
23614;SDS011;11985;49.404;7.734;2022-10-17T01:19:25;17.52;;;4.45;;
23614;SDS011;11985;49.404;7.734;2022-10-17T01:21:39;8.25;;;3.55;;
23614;SDS011;11985;49.404;7.734;2022-10-17T01:23:57;9.15;;;3.85;;
23614;SDS011;11985;49.404;7.734;2022-10-17T01:26:22;5.85;;;3.17;;
23614;SDS011;11985;49.404;7.734;2022-10-17T01:28:39;7.88;;;3.72;;
23614;SDS011;11985;49.404;7.734;2022-10-17T01:31:06;7.78;;;3.50;;
23614;SDS011;11985;49.404;7.734;2022-10-17T01:33:13;17.00;;;3.50;;
23614;SDS011;11985;49.404;7.734;2022-10-17T01:35:22;9.73;;;3.55;;
23614;SDS011;11985;49.404;7.734;2022-10-17T01:37:31;11.77;;;3.30;;
23614;SDS011;11985;49.404;7.734;2022-10-17T01:39:39;5.65;;;3.60;;
23614;SDS011;11985;49.404;7.734;2022-10-17T01:41:45;10.27;;;3.78;;
23614;SDS011;11985;49.404;7.734;2022-10-17T01:43:53;12.15;;;3.25;;
23614;SDS011;11985;49.404;7.734;2022-10-17T01:46:00;7.82;;;3.50;;
23614;SDS011;11985;49.404;7.734;2022-10-17T01:48:10;11.15;;;3.67;;
23614;SDS011;11985;49.404;7.734;2022-10-17T01:50:17;8.00;;;3.30;;
23614;SDS011;11985;49.404;7.734;2022-10-17T01:52:24;8.27;;;3.17;;
23614;SDS011;11985;49.404;7.734;2022-10-17T01:54:29;9.75;;;3.53;;
23614;SDS011;11985;49.404;7.734;2022-10-17T01:56:36;9.85;;;3.10;;
23614;SDS011;11985;49.404;7.734;2022-10-17T01:58:40;15.48;;;3.83;;
23614;SDS011;11985;49.404;7.734;2022-10-17T02:00:44;17.00;;;4.03;;
23614;SDS011;11985;49.404;7.734;2022-10-17T02:02:49;9.85;;;3.35;;
23614;SDS011;11985;49.404;7.734;2022-10-17T02:04:55;8.60;;;3.58;;
23614;SDS011;11985;49.404;7.734;2022-10-17T02:07:04;12.10;;;3.47;;
23614;SDS011;11985;49.404;7.734;2022-10-17T02:09:16;9.93;;;3.95;;
23614;SDS011;11985;49.404;7.734;2022-10-17T02:11:21;10.68;;;3.88;;
23614;SDS011;11985;49.404;7.734;2022-10-17T02:13:26;10.75;;;3.60;;
23614;SDS011;11985;49.404;7.734;2022-10-17T02:15:46;14.55;;;4.18;;
23614;SDS011;11985;49.404;7.734;2022-10-17T02:18:02;10.07;;;4.53;;
23614;SDS011;11985;49.404;7.734;2022-10-17T02:20:19;22.88;;;4.30;;
23614;SDS011;11985;49.404;7.734;2022-10-17T02:22:26;13.35;;;4.00;;
23614;SDS011;11985;49.404;7.734;2022-10-17T02:24:40;9.43;;;3.97;;
23614;SDS011;11985;49.404;7.734;2022-10-17T02:26:48;13.23;;;3.90;;
23614;SDS011;11985;49.404;7.734;2022-10-17T02:28:58;14.45;;;3.92;;
23614;SDS011;11985;49.404;7.734;2022-10-17T02:31:06;8.73;;;3.58;;
23614;SDS011;11985;49.404;7.734;2022-10-17T02:33:14;13.50;;;3.70;;
23614;SDS011;11985;49.404;7.734;2022-10-17T02:35:22;10.35;;;3.85;;
23614;SDS011;11985;49.404;7.734;2022-10-17T02:37:27;8.60;;;3.70;;
23614;SDS011;11985;49.404;7.734;2022-10-17T02:39:32;8.82;;;3.92;;
23614;SDS011;11985;49.404;7.734;2022-10-17T02:41:36;9.63;;;4.07;;
23614;SDS011;11985;49.404;7.734;2022-10-17T02:43:40;12.73;;;3.67;;
23614;SDS011;11985;49.404;7.734;2022-10-17T02:45:44;9.55;;;3.30;;
23614;SDS011;11985;49.404;7.734;2022-10-17T02:47:49;4.95;;;3.33;;
23614;SDS011;11985;49.404;7.734;2022-10-17T02:49:54;17.70;;;4.20;;
23614;SDS011;11985;49.404;7.734;2022-10-17T02:52:00;10.60;;;4.10;;
23614;SDS011;11985;49.404;7.734;2022-10-17T02:54:07;9.85;;;3.97;;
23614;SDS011;11985;49.404;7.734;2022-10-17T02:56:13;9.30;;;3.83;;
23614;SDS011;11985;49.404;7.734;2022-10-17T02:58:19;10.18;;;4.10;;
23614;SDS011;11985;49.404;7.734;2022-10-17T03:00:24;8.93;;;3.50;;
23614;SDS011;11985;49.404;7.734;2022-10-17T03:02:27;7.80;;;3.60;;
23614;SDS011;11985;49.404;7.734;2022-10-17T03:04:28;8.43;;;3.58;;
23614;SDS011;11985;49.404;7.734;2022-10-17T03:08:33;15.77;;;4.25;;
23614;SDS011;11985;49.404;7.734;2022-10-17T03:10:35;14.68;;;4.00;;
23614;SDS011;11985;49.404;7.734;2022-10-17T03:12:36;8.70;;;4.03;;
23614;SDS011;11985;49.404;7.734;2022-10-17T03:14:38;16.55;;;4.43;;
23614;SDS011;11985;49.404;7.734;2022-10-17T03:18:41;16.33;;;4.25;;
23614;SDS011;11985;49.404;7.734;2022-10-17T03:22:44;11.30;;;3.95;;
23614;SDS011;11985;49.404;7.734;2022-10-17T03:24:48;9.80;;;3.92;;
23614;SDS011;11985;49.404;7.734;2022-10-17T03:26:50;9.23;;;4.35;;
23614;SDS011;11985;49.404;7.734;2022-10-17T03:30:53;17.20;;;4.35;;
23614;SDS011;11985;49.404;7.734;2022-10-17T03:32:56;10.45;;;4.68;;
23614;SDS011;11985;49.404;7.734;2022-10-17T03:34:58;9.75;;;4.22;;
23614;SDS011;11985;49.404;7.734;2022-10-17T03:39:01;12.10;;;4.40;;
23614;SDS011;11985;49.404;7.734;2022-10-17T03:43:06;12.07;;;4.50;;
23614;SDS011;11985;49.404;7.734;2022-10-17T03:45:10;9.50;;;4.22;;
23614;SDS011;11985;49.404;7.734;2022-10-17T03:47:12;8.93;;;4.85;;
23614;SDS011;11985;49.404;7.734;2022-10-17T03:51:15;17.60;;;5.07;;
23614;SDS011;11985;49.404;7.734;2022-10-17T03:53:17;12.18;;;4.95;;
23614;SDS011;11985;49.404;7.734;2022-10-17T03:55:19;22.80;;;5.25;;
23614;SDS011;11985;49.404;7.734;2022-10-17T03:57:22;11.07;;;4.35;;
23614;SDS011;11985;49.404;7.734;2022-10-17T03:59:24;11.68;;;4.60;;
23614;SDS011;11985;49.404;7.734;2022-10-17T04:03:27;14.95;;;5.15;;
23614;SDS011;11985;49.404;7.734;2022-10-17T04:05:28;9.13;;;4.03;;
23614;SDS011;11985;49.404;7.734;2022-10-17T04:07:30;12.85;;;4.45;;
23614;SDS011;11985;49.404;7.734;2022-10-17T04:09:32;9.60;;;4.68;;
23614;SDS011;11985;49.404;7.734;2022-10-17T04:11:33;8.90;;;4.10;;
23614;SDS011;11985;49.404;7.734;2022-10-17T04:13:36;9.93;;;4.15;;
23614;SDS011;11985;49.404;7.734;2022-10-17T04:15:38;8.25;;;5.00;;
23614;SDS011;11985;49.404;7.734;2022-10-17T04:17:40;9.98;;;4.07;;
23614;SDS011;11985;49.404;7.734;2022-10-17T04:21:43;5.93;;;4.47;;
23614;SDS011;11985;49.404;7.734;2022-10-17T04:25:46;10.07;;;3.17;;
23614;SDS011;11985;49.404;7.734;2022-10-17T04:27:48;12.27;;;3.70;;
23614;SDS011;11985;49.404;7.734;2022-10-17T04:29:51;8.15;;;3.40;;
23614;SDS011;11985;49.404;7.734;2022-10-17T04:31:53;16.90;;;3.50;;
23614;SDS011;11985;49.404;7.734;2022-10-17T04:33:55;8.20;;;3.15;;
23614;SDS011;11985;49.404;7.734;2022-10-17T04:37:58;6.50;;;3.50;;
23614;SDS011;11985;49.404;7.734;2022-10-17T04:40:00;3.97;;;2.70;;
23614;SDS011;11985;49.404;7.734;2022-10-17T04:42:02;3.75;;;2.83;;
23614;SDS011;11985;49.404;7.734;2022-10-17T04:44:04;11.05;;;3.22;;
23614;SDS011;11985;49.404;7.734;2022-10-17T04:46:08;8.88;;;3.40;;
23614;SDS011;11985;49.404;7.734;2022-10-17T04:48:11;11.43;;;3.47;;
23614;SDS011;11985;49.404;7.734;2022-10-17T04:50:13;9.13;;;3.13;;
23614;SDS011;11985;49.404;7.734;2022-10-17T04:52:14;8.65;;;3.30;;
23614;SDS011;11985;49.404;7.734;2022-10-17T04:54:16;12.57;;;3.15;;
23614;SDS011;11985;49.404;7.734;2022-10-17T04:58:20;6.65;;;3.67;;
23614;SDS011;11985;49.404;7.734;2022-10-17T05:00:22;8.38;;;3.88;;
23614;SDS011;11985;49.404;7.734;2022-10-17T05:04:27;7.75;;;3.50;;
23614;SDS011;11985;49.404;7.734;2022-10-17T05:06:29;11.35;;;3.58;;
23614;SDS011;11985;49.404;7.734;2022-10-17T05:08:32;5.55;;;3.28;;
23614;SDS011;11985;49.404;7.734;2022-10-17T05:10:35;8.25;;;3.22;;
23614;SDS011;11985;49.404;7.734;2022-10-17T05:12:37;10.60;;;3.25;;
23614;SDS011;11985;49.404;7.734;2022-10-17T05:14:39;6.40;;;2.88;;
23614;SDS011;11985;49.404;7.734;2022-10-17T05:18:43;11.48;;;3.50;;
23614;SDS011;11985;49.404;7.734;2022-10-17T05:20:48;4.97;;;2.75;;
23614;SDS011;11985;49.404;7.734;2022-10-17T05:24:52;7.18;;;3.03;;
23614;SDS011;11985;49.404;7.734;2022-10-17T05:28:55;5.88;;;3.22;;
23614;SDS011;11985;49.404;7.734;2022-10-17T05:31:00;8.55;;;2.67;;
23614;SDS011;11985;49.404;7.734;2022-10-17T05:33:03;12.70;;;3.10;;
23614;SDS011;11985;49.404;7.734;2022-10-17T05:37:08;7.32;;;3.05;;
23614;SDS011;11985;49.404;7.734;2022-10-17T05:39:10;13.00;;;3.60;;
23614;SDS011;11985;49.404;7.734;2022-10-17T05:41:12;6.07;;;3.58;;
23614;SDS011;11985;49.404;7.734;2022-10-17T05:43:14;8.10;;;3.25;;
23614;SDS011;11985;49.404;7.734;2022-10-17T05:47:17;8.20;;;3.47;;
23614;SDS011;11985;49.404;7.734;2022-10-17T05:49:19;6.70;;;3.10;;
23614;SDS011;11985;49.404;7.734;2022-10-17T05:51:22;5.72;;;3.05;;
23614;SDS011;11985;49.404;7.734;2022-10-17T05:53:23;6.88;;;3.40;;
23614;SDS011;11985;49.404;7.734;2022-10-17T05:55:25;7.63;;;3.20;;
23614;SDS011;11985;49.404;7.734;2022-10-17T05:57:26;5.53;;;3.03;;
23614;SDS011;11985;49.404;7.734;2022-10-17T05:59:28;5.55;;;2.50;;
23614;SDS011;11985;49.404;7.734;2022-10-17T06:01:29;11.63;;;3.10;;
23614;SDS011;11985;49.404;7.734;2022-10-17T06:03:31;11.02;;;3.28;;
23614;SDS011;11985;49.404;7.734;2022-10-17T06:05:33;11.18;;;3.00;;
23614;SDS011;11985;49.404;7.734;2022-10-17T06:07:36;8.40;;;3.00;;
23614;SDS011;11985;49.404;7.734;2022-10-17T06:09:38;13.55;;;3.20;;
23614;SDS011;11985;49.404;7.734;2022-10-17T06:11:41;5.40;;;2.95;;
23614;SDS011;11985;49.404;7.734;2022-10-17T06:15:44;6.22;;;2.53;;
23614;SDS011;11985;49.404;7.734;2022-10-17T06:17:46;10.18;;;2.85;;
23614;SDS011;11985;49.404;7.734;2022-10-17T06:21:49;8.90;;;2.70;;
23614;SDS011;11985;49.404;7.734;2022-10-17T06:25:56;10.68;;;2.65;;
23614;SDS011;11985;49.404;7.734;2022-10-17T06:27:58;10.57;;;3.65;;
23614;SDS011;11985;49.404;7.734;2022-10-17T06:30:00;6.75;;;2.97;;
23614;SDS011;11985;49.404;7.734;2022-10-17T06:32:02;6.78;;;2.88;;
23614;SDS011;11985;49.404;7.734;2022-10-17T06:34:04;9.73;;;3.10;;
23614;SDS011;11985;49.404;7.734;2022-10-17T06:36:06;5.88;;;2.90;;
23614;SDS011;11985;49.404;7.734;2022-10-17T06:38:11;4.88;;;2.80;;
23614;SDS011;11985;49.404;7.734;2022-10-17T06:40:14;7.93;;;3.10;;
23614;SDS011;11985;49.404;7.734;2022-10-17T06:42:16;10.10;;;3.10;;
23614;SDS011;11985;49.404;7.734;2022-10-17T06:44:17;8.07;;;2.72;;
23614;SDS011;11985;49.404;7.734;2022-10-17T06:46:21;10.10;;;2.92;;
23614;SDS011;11985;49.404;7.734;2022-10-17T06:48:25;6.45;;;3.05;;
23614;SDS011;11985;49.404;7.734;2022-10-17T06:50:27;10.73;;;3.15;;
23614;SDS011;11985;49.404;7.734;2022-10-17T06:52:28;5.07;;;2.67;;
23614;SDS011;11985;49.404;7.734;2022-10-17T06:54:30;7.13;;;2.60;;
23614;SDS011;11985;49.404;7.734;2022-10-17T06:56:33;6.30;;;2.45;;
23614;SDS011;11985;49.404;7.734;2022-10-17T06:58:36;3.45;;;2.55;;
23614;SDS011;11985;49.404;7.734;2022-10-17T07:00:39;8.05;;;2.75;;
23614;SDS011;11985;49.404;7.734;2022-10-17T07:02:41;10.75;;;2.60;;
23614;SDS011;11985;49.404;7.734;2022-10-17T07:04:44;7.30;;;3.05;;
23614;SDS011;11985;49.404;7.734;2022-10-17T07:06:46;6.30;;;2.45;;
23614;SDS011;11985;49.404;7.734;2022-10-17T07:08:47;10.15;;;2.42;;
23614;SDS011;11985;49.404;7.734;2022-10-17T07:10:49;7.63;;;2.40;;
23614;SDS011;11985;49.404;7.734;2022-10-17T07:12:52;5.13;;;2.60;;
23614;SDS011;11985;49.404;7.734;2022-10-17T07:14:54;6.72;;;2.50;;
23614;SDS011;11985;49.404;7.734;2022-10-17T07:16:56;20.85;;;2.83;;
23614;SDS011;11985;49.404;7.734;2022-10-17T07:20:59;5.90;;;2.33;;
23614;SDS011;11985;49.404;7.734;2022-10-17T07:23:01;7.13;;;2.63;;
23614;SDS011;11985;49.404;7.734;2022-10-17T07:25:03;6.20;;;2.50;;
23614;SDS011;11985;49.404;7.734;2022-10-17T07:27:05;10.18;;;2.30;;
23614;SDS011;11985;49.404;7.734;2022-10-17T07:29:09;4.78;;;2.13;;
23614;SDS011;11985;49.404;7.734;2022-10-17T07:31:12;4.13;;;2.70;;
23614;SDS011;11985;49.404;7.734;2022-10-17T07:33:14;5.13;;;2.10;;
23614;SDS011;11985;49.404;7.734;2022-10-17T07:35:17;8.90;;;2.13;;
23614;SDS011;11985;49.404;7.734;2022-10-17T07:37:18;6.00;;;2.53;;
23614;SDS011;11985;49.404;7.734;2022-10-17T07:39:21;7.63;;;2.95;;
23614;SDS011;11985;49.404;7.734;2022-10-17T07:41:23;3.55;;;1.95;;
23614;SDS011;11985;49.404;7.734;2022-10-17T07:43:25;6.97;;;2.25;;
23614;SDS011;11985;49.404;7.734;2022-10-17T07:45:31;9.80;;;2.60;;
23614;SDS011;11985;49.404;7.734;2022-10-17T07:47:35;4.88;;;2.38;;
23614;SDS011;11985;49.404;7.734;2022-10-17T07:49:37;4.93;;;2.55;;
23614;SDS011;11985;49.404;7.734;2022-10-17T07:51:41;6.13;;;2.35;;
23614;SDS011;11985;49.404;7.734;2022-10-17T07:53:43;4.75;;;2.17;;
23614;SDS011;11985;49.404;7.734;2022-10-17T07:55:46;5.85;;;2.15;;
23614;SDS011;11985;49.404;7.734;2022-10-17T07:57:53;12.98;;;2.97;;
23614;SDS011;11985;49.404;7.734;2022-10-17T07:59:55;5.97;;;2.60;;
23614;SDS011;11985;49.404;7.734;2022-10-17T08:01:59;2.45;;;2.08;;
23614;SDS011;11985;49.404;7.734;2022-10-17T08:04:03;10.10;;;2.85;;
23614;SDS011;11985;49.404;7.734;2022-10-17T08:06:07;10.23;;;2.80;;
23614;SDS011;11985;49.404;7.734;2022-10-17T08:08:09;3.85;;;2.10;;
23614;SDS011;11985;49.404;7.734;2022-10-17T08:10:12;9.55;;;2.38;;
23614;SDS011;11985;49.404;7.734;2022-10-17T08:12:15;6.60;;;2.13;;
23614;SDS011;11985;49.404;7.734;2022-10-17T08:14:20;5.07;;;2.28;;
23614;SDS011;11985;49.404;7.734;2022-10-17T08:16:22;5.50;;;2.00;;
23614;SDS011;11985;49.404;7.734;2022-10-17T08:18:27;3.72;;;1.83;;
23614;SDS011;11985;49.404;7.734;2022-10-17T08:20:31;3.50;;;1.90;;
23614;SDS011;11985;49.404;7.734;2022-10-17T08:22:33;3.53;;;1.95;;
23614;SDS011;11985;49.404;7.734;2022-10-17T08:24:35;4.75;;;1.95;;
23614;SDS011;11985;49.404;7.734;2022-10-17T08:28:39;6.85;;;2.45;;
23614;SDS011;11985;49.404;7.734;2022-10-17T08:30:41;6.55;;;2.28;;
23614;SDS011;11985;49.404;7.734;2022-10-17T08:36:47;4.15;;;1.83;;
23614;SDS011;11985;49.404;7.734;2022-10-17T08:40:51;7.15;;;2.10;;
23614;SDS011;11985;49.404;7.734;2022-10-17T08:43:04;6.38;;;2.15;;
23614;SDS011;11985;49.404;7.734;2022-10-17T08:45:37;10.50;;;1.95;;
23614;SDS011;11985;49.404;7.734;2022-10-17T08:47:46;2.55;;;1.90;;
23614;SDS011;11985;49.404;7.734;2022-10-17T08:49:54;4.65;;;2.10;;
23614;SDS011;11985;49.404;7.734;2022-10-17T08:52:01;10.68;;;2.20;;
23614;SDS011;11985;49.404;7.734;2022-10-17T08:54:09;3.80;;;2.10;;
23614;SDS011;11985;49.404;7.734;2022-10-17T08:56:17;5.05;;;2.30;;
23614;SDS011;11985;49.404;7.734;2022-10-17T08:58:36;6.50;;;2.15;;
23614;SDS011;11985;49.404;7.734;2022-10-17T09:00:40;4.45;;;1.80;;
23614;SDS011;11985;49.404;7.734;2022-10-17T09:02:49;4.43;;;1.98;;
23614;SDS011;11985;49.404;7.734;2022-10-17T09:05:18;3.85;;;2.10;;
23614;SDS011;11985;49.404;7.734;2022-10-17T09:07:31;5.85;;;1.75;;
23614;SDS011;11985;49.404;7.734;2022-10-17T09:09:41;4.32;;;2.03;;
23614;SDS011;11985;49.404;7.734;2022-10-17T09:11:55;5.43;;;1.98;;
23614;SDS011;11985;49.404;7.734;2022-10-17T09:14:07;3.35;;;1.90;;
23614;SDS011;11985;49.404;7.734;2022-10-17T09:19:02;4.53;;;2.20;;
23614;SDS011;11985;49.404;7.734;2022-10-17T09:21:14;5.32;;;2.00;;
23614;SDS011;11985;49.404;7.734;2022-10-17T09:23:21;7.32;;;2.20;;
23614;SDS011;11985;49.404;7.734;2022-10-17T09:25:26;4.78;;;1.98;;
23614;SDS011;11985;49.404;7.734;2022-10-17T09:27:31;3.92;;;2.00;;
23614;SDS011;11985;49.404;7.734;2022-10-17T09:29:36;3.33;;;1.75;;
23614;SDS011;11985;49.404;7.734;2022-10-17T09:31:39;6.03;;;2.05;;
23614;SDS011;11985;49.404;7.734;2022-10-17T09:33:46;10.15;;;2.05;;
23614;SDS011;11985;49.404;7.734;2022-10-17T09:35:50;8.00;;;1.92;;
23614;SDS011;11985;49.404;7.734;2022-10-17T09:37:57;7.63;;;1.88;;
23614;SDS011;11985;49.404;7.734;2022-10-17T09:39:59;7.03;;;2.30;;
23614;SDS011;11985;49.404;7.734;2022-10-17T09:42:00;3.53;;;2.30;;
23614;SDS011;11985;49.404;7.734;2022-10-17T09:44:14;6.50;;;1.90;;
23614;SDS011;11985;49.404;7.734;2022-10-17T09:46:21;4.97;;;1.90;;
23614;SDS011;11985;49.404;7.734;2022-10-17T09:48:29;5.53;;;2.25;;
23614;SDS011;11985;49.404;7.734;2022-10-17T09:50:36;10.23;;;1.77;;
23614;SDS011;11985;49.404;7.734;2022-10-17T09:52:45;7.07;;;2.22;;
23614;SDS011;11985;49.404;7.734;2022-10-17T09:54:53;4.88;;;1.77;;
23614;SDS011;11985;49.404;7.734;2022-10-17T09:56:58;5.78;;;2.03;;
23614;SDS011;11985;49.404;7.734;2022-10-17T09:59:01;9.25;;;2.10;;
23614;SDS011;11985;49.404;7.734;2022-10-17T10:01:17;5.70;;;1.88;;
23614;SDS011;11985;49.404;7.734;2022-10-17T10:03:21;11.60;;;2.22;;
23614;SDS011;11985;49.404;7.734;2022-10-17T10:05:25;7.82;;;1.90;;
23614;SDS011;11985;49.404;7.734;2022-10-17T10:07:28;5.45;;;1.85;;
23614;SDS011;11985;49.404;7.734;2022-10-17T10:09:32;3.78;;;2.20;;
23614;SDS011;11985;49.404;7.734;2022-10-17T10:11:47;11.25;;;2.15;;
23614;SDS011;11985;49.404;7.734;2022-10-17T10:13:51;4.78;;;1.85;;
23614;SDS011;11985;49.404;7.734;2022-10-17T10:16:13;3.88;;;1.92;;
23614;SDS011;11985;49.404;7.734;2022-10-17T10:18:29;3.63;;;2.10;;
23614;SDS011;11985;49.404;7.734;2022-10-17T10:20:35;4.97;;;1.90;;
23614;SDS011;11985;49.404;7.734;2022-10-17T10:22:40;7.80;;;2.05;;
23614;SDS011;11985;49.404;7.734;2022-10-17T10:26:45;7.13;;;1.90;;
23614;SDS011;11985;49.404;7.734;2022-10-17T10:28:53;6.57;;;1.88;;
23614;SDS011;11985;49.404;7.734;2022-10-17T10:30:59;4.07;;;1.83;;
23614;SDS011;11985;49.404;7.734;2022-10-17T10:33:05;3.92;;;2.10;;
23614;SDS011;11985;49.404;7.734;2022-10-17T10:37:19;2.75;;;1.88;;
23614;SDS011;11985;49.404;7.734;2022-10-17T10:39:29;8.60;;;2.20;;
23614;SDS011;11985;49.404;7.734;2022-10-17T10:41:44;3.40;;;2.10;;
23614;SDS011;11985;49.404;7.734;2022-10-17T10:43:50;7.93;;;2.83;;
23614;SDS011;11985;49.404;7.734;2022-10-17T10:45:55;3.28;;;1.98;;
23614;SDS011;11985;49.404;7.734;2022-10-17T10:47:58;8.68;;;2.13;;
23614;SDS011;11985;49.404;7.734;2022-10-17T10:50:20;4.93;;;2.28;;
23614;SDS011;11985;49.404;7.734;2022-10-17T10:52:28;6.25;;;2.53;;
23614;SDS011;11985;49.404;7.734;2022-10-17T10:54:36;4.90;;;2.60;;
23614;SDS011;11985;49.404;7.734;2022-10-17T10:56:43;10.07;;;2.38;;
23614;SDS011;11985;49.404;7.734;2022-10-17T10:58:53;4.65;;;2.10;;
23614;SDS011;11985;49.404;7.734;2022-10-17T11:00:58;6.28;;;2.17;;
23614;SDS011;11985;49.404;7.734;2022-10-17T11:03:07;3.83;;;1.98;;
23614;SDS011;11985;49.404;7.734;2022-10-17T11:05:16;7.78;;;2.17;;
23614;SDS011;11985;49.404;7.734;2022-10-17T11:07:26;7.53;;;1.95;;
23614;SDS011;11985;49.404;7.734;2022-10-17T11:09:36;6.47;;;2.58;;
23614;SDS011;11985;49.404;7.734;2022-10-17T11:11:47;3.03;;;2.03;;
23614;SDS011;11985;49.404;7.734;2022-10-17T11:14:04;11.30;;;2.15;;
23614;SDS011;11985;49.404;7.734;2022-10-17T11:16:18;5.00;;;2.22;;
23614;SDS011;11985;49.404;7.734;2022-10-17T11:18:32;5.03;;;2.05;;
23614;SDS011;11985;49.404;7.734;2022-10-17T11:20:41;8.18;;;2.35;;
23614;SDS011;11985;49.404;7.734;2022-10-17T11:22:53;5.50;;;2.10;;
23614;SDS011;11985;49.404;7.734;2022-10-17T11:24:59;9.45;;;2.33;;
23614;SDS011;11985;49.404;7.734;2022-10-17T11:27:13;7.63;;;2.67;;
23614;SDS011;11985;49.404;7.734;2022-10-17T11:29:17;3.80;;;2.10;;
23614;SDS011;11985;49.404;7.734;2022-10-17T11:31:19;3.80;;;2.20;;
23614;SDS011;11985;49.404;7.734;2022-10-17T11:33:26;4.63;;;2.40;;
23614;SDS011;11985;49.404;7.734;2022-10-17T11:35:31;7.10;;;2.40;;
23614;SDS011;11985;49.404;7.734;2022-10-17T11:37:36;7.80;;;2.20;;
23614;SDS011;11985;49.404;7.734;2022-10-17T11:39:49;7.38;;;2.40;;
23614;SDS011;11985;49.404;7.734;2022-10-17T11:41:55;5.65;;;2.30;;
23614;SDS011;11985;49.404;7.734;2022-10-17T11:44:07;3.83;;;2.10;;
23614;SDS011;11985;49.404;7.734;2022-10-17T11:46:17;5.78;;;2.22;;
23614;SDS011;11985;49.404;7.734;2022-10-17T11:48:23;12.18;;;2.20;;
23614;SDS011;11985;49.404;7.734;2022-10-17T11:50:31;6.22;;;2.53;;
23614;SDS011;11985;49.404;7.734;2022-10-17T11:52:40;5.85;;;2.40;;
23614;SDS011;11985;49.404;7.734;2022-10-17T11:54:47;5.15;;;2.45;;
23614;SDS011;11985;49.404;7.734;2022-10-17T11:56:56;3.35;;;1.90;;
23614;SDS011;11985;49.404;7.734;2022-10-17T11:59:20;6.85;;;2.45;;
23614;SDS011;11985;49.404;7.734;2022-10-17T12:01:51;8.35;;;2.42;;
23614;SDS011;11985;49.404;7.734;2022-10-17T12:04:01;5.05;;;2.53;;
23614;SDS011;11985;49.404;7.734;2022-10-17T12:06:33;7.20;;;2.50;;
23614;SDS011;11985;49.404;7.734;2022-10-17T12:08:44;9.75;;;2.25;;
23614;SDS011;11985;49.404;7.734;2022-10-17T12:10:57;5.35;;;2.60;;
23614;SDS011;11985;49.404;7.734;2022-10-17T12:15:43;4.38;;;2.45;;
23614;SDS011;11985;49.404;7.734;2022-10-17T12:17:46;6.80;;;2.40;;
23614;SDS011;11985;49.404;7.734;2022-10-17T12:22:32;7.63;;;2.15;;
23614;SDS011;11985;49.404;7.734;2022-10-17T12:24:36;4.68;;;2.40;;
23614;SDS011;11985;49.404;7.734;2022-10-17T12:26:41;9.80;;;2.55;;
23614;SDS011;11985;49.404;7.734;2022-10-17T12:28:43;7.72;;;2.88;;
23614;SDS011;11985;49.404;7.734;2022-10-17T12:30:50;9.68;;;2.45;;
23614;SDS011;11985;49.404;7.734;2022-10-17T12:32:57;11.82;;;2.45;;
23614;SDS011;11985;49.404;7.734;2022-10-17T12:35:02;10.43;;;2.60;;
23614;SDS011;11985;49.404;7.734;2022-10-17T12:37:07;7.25;;;2.42;;
23614;SDS011;11985;49.404;7.734;2022-10-17T12:41:52;4.63;;;2.50;;
23614;SDS011;11985;49.404;7.734;2022-10-17T12:43:54;7.43;;;2.40;;
23614;SDS011;11985;49.404;7.734;2022-10-17T12:45:55;6.78;;;2.67;;
23614;SDS011;11985;49.404;7.734;2022-10-17T12:47:59;7.13;;;2.30;;
23614;SDS011;11985;49.404;7.734;2022-10-17T12:50:01;6.43;;;2.40;;
23614;SDS011;11985;49.404;7.734;2022-10-17T12:52:04;5.78;;;2.50;;
23614;SDS011;11985;49.404;7.734;2022-10-17T12:54:17;12.43;;;3.30;;
23614;SDS011;11985;49.404;7.734;2022-10-17T12:58:21;4.03;;;2.70;;
23614;SDS011;11985;49.404;7.734;2022-10-17T13:02:29;7.68;;;2.45;;
23614;SDS011;11985;49.404;7.734;2022-10-17T13:04:32;10.23;;;2.58;;
23614;SDS011;11985;49.404;7.734;2022-10-17T13:06:38;5.30;;;2.33;;
23614;SDS011;11985;49.404;7.734;2022-10-17T13:08:46;6.68;;;2.45;;
23614;SDS011;11985;49.404;7.734;2022-10-17T13:10:50;5.47;;;2.38;;
23614;SDS011;11985;49.404;7.734;2022-10-17T13:12:57;5.22;;;2.60;;
23614;SDS011;11985;49.404;7.734;2022-10-17T13:15:06;6.53;;;2.30;;
23614;SDS011;11985;49.404;7.734;2022-10-17T13:17:19;6.82;;;2.40;;
23614;SDS011;11985;49.404;7.734;2022-10-17T13:19:23;12.27;;;2.70;;
23614;SDS011;11985;49.404;7.734;2022-10-17T13:21:27;7.80;;;2.72;;
23614;SDS011;11985;49.404;7.734;2022-10-17T13:23:30;6.00;;;2.22;;
23614;SDS011;11985;49.404;7.734;2022-10-17T13:25:33;7.68;;;2.40;;
23614;SDS011;11985;49.404;7.734;2022-10-17T13:29:38;6.32;;;2.22;;
23614;SDS011;11985;49.404;7.734;2022-10-17T13:31:44;6.93;;;2.45;;
23614;SDS011;11985;49.404;7.734;2022-10-17T13:33:54;10.20;;;2.38;;
23614;SDS011;11985;49.404;7.734;2022-10-17T13:35:56;5.55;;;2.45;;
23614;SDS011;11985;49.404;7.734;2022-10-17T13:38:00;6.43;;;2.30;;
23614;SDS011;11985;49.404;7.734;2022-10-17T13:40:10;5.15;;;2.35;;
23614;SDS011;11985;49.404;7.734;2022-10-17T13:42:16;6.03;;;2.45;;
23614;SDS011;11985;49.404;7.734;2022-10-17T13:44:23;11.00;;;3.40;;
23614;SDS011;11985;49.404;7.734;2022-10-17T13:46:27;9.05;;;2.72;;
23614;SDS011;11985;49.404;7.734;2022-10-17T13:48:32;8.77;;;2.78;;
23614;SDS011;11985;49.404;7.734;2022-10-17T13:50:37;7.68;;;2.40;;
23614;SDS011;11985;49.404;7.734;2022-10-17T13:52:41;4.38;;;2.33;;
23614;SDS011;11985;49.404;7.734;2022-10-17T13:56:48;7.32;;;2.35;;
23614;SDS011;11985;49.404;7.734;2022-10-17T13:58:57;10.23;;;2.63;;
23614;SDS011;11985;49.404;7.734;2022-10-17T14:01:02;6.55;;;2.15;;